Time;durP1;ratioP1;P1;durP2;ratioP2;P2;SDS_P1;SDS_P2;PMS_P1;PMS_P2;Temp;Humidity;BMP_temperature;BMP_pressure;BME280_temperature;BME280_humidity;BME280_pressure;Samples;Min_cycle;Max_cycle;Signal;HPM_P1;HPM_P2
2024/01/26 00:00:14;;;;;;;15.60;5.60;;;;;;;-143.21;58.18;73581.59;4910113;29;20229;-94
2024/01/26 00:02:42;;;;;;;10.17;5.80;;;;;;;-143.21;58.02;73575.63;4913323;29;20223;-91
2024/01/26 00:05:10;;;;;;;16.00;4.80;;;;;;;-143.21;57.84;73575.63;4904454;29;20198;-89
2024/01/26 00:07:36;;;;;;;14.40;5.80;;;;;;;-143.21;57.94;73577.63;4912601;29;20683;-91
2024/01/26 00:10:04;;;;;;;9.57;5.07;;;;;;;-143.21;58.06;73575.63;4902701;29;20233;-89
2024/01/26 00:12:31;;;;;;;16.10;5.53;;;;;;;-143.21;57.90;73571.66;4899242;29;20201;-91
2024/01/26 00:14:58;;;;;;;14.00;5.43;;;;;;;-143.21;58.15;73575.63;4908186;29;20242;-91
2024/01/26 00:17:25;;;;;;;15.00;5.63;;;;;;;-143.21;58.26;73577.63;4915233;29;20694;-91
2024/01/26 00:19:55;;;;;;;11.70;5.00;;;;;;;-143.21;58.45;73589.53;4913353;29;20238;-90
2024/01/26 00:22:22;;;;;;;11.33;5.10;;;;;;;-143.21;58.42;73589.53;4913832;29;20204;-92
2024/01/26 00:24:49;;;;;;;11.70;5.00;;;;;;;-143.21;58.42;73599.44;4917265;29;20519;-91
2024/01/26 00:27:16;;;;;;;15.17;5.17;;;;;;;-143.21;58.83;73607.38;4915137;29;20212;-90
2024/01/26 00:29:43;;;;;;;13.27;5.50;;;;;;;-143.21;58.79;73611.34;4913011;29;20258;-90
2024/01/26 00:32:10;;;;;;;13.40;5.60;;;;;;;-143.21;58.77;73609.34;4919834;29;20682;-89
2024/01/26 00:34:37;;;;;;;11.83;4.67;;;;;;;-143.21;57.92;73603.41;4904447;29;20264;-91
2024/01/26 00:37:05;;;;;;;12.73;5.07;;;;;;;-143.21;58.43;73609.34;4904424;29;20205;-90
2024/01/26 00:39:32;;;;;;;14.83;4.93;;;;;;;-143.21;57.93;73603.41;4913263;29;20624;-90
2024/01/26 00:41:59;;;;;;;13.43;4.97;;;;;;;-143.21;58.34;73613.31;4915404;29;20212;-89
2024/01/26 00:44:26;;;;;;;10.57;4.50;;;;;;;-143.21;58.34;73617.28;4915549;29;20206;-92
2024/01/26 00:46:52;;;;;;;12.50;4.90;;;;;;;-143.21;58.79;73623.25;4916332;29;20206;-91
2024/01/26 00:49:19;;;;;;;11.87;4.53;;;;;;;-143.21;58.86;73627.22;4910585;29;20240;-92
2024/01/26 00:51:47;;;;;;;7.87;4.53;;;;;;;-143.21;58.63;73625.22;4919367;29;20209;-91
2024/01/26 00:54:15;;;;;;;10.07;4.07;;;;;;;-143.21;58.93;73629.19;4920907;29;20655;-90
2024/01/26 00:56:42;;;;;;;13.70;4.80;;;;;;;-143.21;58.87;73637.13;4923625;29;20208;-90
2024/01/26 00:59:09;;;;;;;11.63;4.43;;;;;;;-143.21;59.14;73643.09;4928775;29;20208;-90
2024/01/26 01:01:36;;;;;;;12.67;4.83;;;;;;;-143.21;59.16;73653.00;4907367;29;20199;-90
2024/01/26 01:04:05;;;;;;;12.30;4.70;;;;;;;-143.21;58.53;73662.94;4917906;29;20238;-89
2024/01/26 01:06:32;;;;;;;10.67;4.77;;;;;;;-143.21;58.61;73664.91;4933509;29;20215;-90
2024/01/26 01:08:58;;;;;;;12.03;4.70;;;;;;;-143.21;58.64;73676.81;4916524;29;20236;-91
2024/01/26 01:11:27;;;;;;;10.07;4.40;;;;;;;-143.21;58.68;73688.72;4917778;29;20638;-91
2024/01/26 01:13:54;;;;;;;12.00;4.93;;;;;;;-143.21;58.64;73686.72;4911771;29;20280;-90
2024/01/26 01:16:22;;;;;;;12.90;4.13;;;;;;;-143.21;58.53;73688.72;4917569;29;20251;-91
2024/01/26 01:18:49;;;;;;;12.87;4.37;;;;;;;-143.21;58.53;73686.72;4932057;29;20233;-90
2024/01/26 01:21:16;;;;;;;10.57;4.53;;;;;;;-143.21;57.98;73684.75;4919860;29;20201;-91
2024/01/26 01:23:43;;;;;;;11.63;4.67;;;;;;;-143.21;57.59;73678.78;4913973;29;20677;-91
2024/01/26 01:26:09;;;;;;;9.17;4.43;;;;;;;-143.21;57.87;73678.78;4924036;29;20266;-91
2024/01/26 01:28:38;;;;;;;7.57;3.70;;;;;;;-143.21;57.79;73662.94;4924373;29;20204;-92
2024/01/26 01:31:05;;;;;;;9.80;3.93;;;;;;;-143.21;57.66;73660.94;4942932;28;20236;-92
2024/01/26 01:33:31;;;;;;;9.00;3.37;;;;;;;-143.21;57.42;73672.84;4925710;29;20581;-91
2024/01/26 01:35:58;;;;;;;10.00;3.70;;;;;;;-143.21;57.28;73670.84;4932433;29;20673;-91
2024/01/26 01:38:25;;;;;;;9.93;3.97;;;;;;;-143.21;56.96;73664.91;4917648;29;20201;-91
2024/01/26 01:40:52;;;;;;;14.50;3.70;;;;;;;-143.21;57.17;73662.94;4910382;29;20216;-92
2024/01/26 01:43:19;;;;;;;11.20;3.60;;;;;;;-143.21;57.05;73658.97;4920051;29;20215;-91
2024/01/26 01:45:47;;;;;;;7.80;3.47;;;;;;;-143.21;57.29;73660.94;4918047;29;20329;-90
2024/01/26 01:48:14;;;;;;;9.63;3.83;;;;;;;-143.21;57.53;73658.97;4915981;29;20221;-92
2024/01/26 01:50:41;;;;;;;6.80;3.60;;;;;;;-143.21;57.82;73670.84;4912580;29;20243;-92
2024/01/26 01:53:09;;;;;;;7.80;3.63;;;;;;;-143.21;57.91;73672.84;4915642;29;20892;-90
2024/01/26 01:55:40;;;;;;;14.63;4.30;;;;;;;-143.21;57.80;73674.81;4916461;29;20684;-90
2024/01/26 01:58:08;;;;;;;13.30;4.10;;;;;;;-143.21;57.76;73674.81;4921976;29;20215;-90
2024/01/26 02:00:35;;;;;;;11.93;4.30;;;;;;;-143.21;58.13;73688.72;4917361;29;20299;-89
2024/01/26 02:03:03;;;;;;;13.53;4.40;;;;;;;-143.21;58.51;73684.75;4913051;29;20244;-90
2024/01/26 02:05:30;;;;;;;11.57;3.60;;;;;;;-143.21;58.39;73682.75;4920376;29;20205;-90
2024/01/26 02:07:57;;;;;;;11.07;3.80;;;;;;;-143.21;57.96;73684.75;4922052;29;20213;-90
2024/01/26 02:10:24;;;;;;;7.57;3.73;;;;;;;-143.21;58.07;73688.72;4916352;29;20233;-90
2024/01/26 02:12:51;;;;;;;7.53;3.60;;;;;;;-143.21;58.88;73684.75;4921698;29;20215;-91
2024/01/26 02:15:18;;;;;;;7.70;3.77;;;;;;;-143.21;58.19;73674.81;4917817;29;20265;-89
2024/01/26 02:17:45;;;;;;;12.37;3.93;;;;;;;-143.21;57.71;73680.78;4924747;29;20215;-90
2024/01/26 02:20:13;;;;;;;12.20;3.70;;;;;;;-143.21;57.65;73668.88;4910295;29;20233;-89
2024/01/26 02:22:40;;;;;;;11.60;4.00;;;;;;;-143.21;57.50;73666.88;4908843;29;20750;-89
2024/01/26 02:25:09;;;;;;;8.17;3.33;;;;;;;-143.21;57.18;73666.88;4914277;29;20715;-90
2024/01/26 02:27:36;;;;;;;7.10;3.20;;;;;;;-143.21;56.72;73660.94;4925425;29;20211;-91
2024/01/26 02:30:03;;;;;;;8.50;3.43;;;;;;;-143.21;56.85;73647.06;4922580;29;20230;-91
2024/01/26 02:32:29;;;;;;;14.97;3.70;;;;;;;-143.21;57.03;73658.97;4911346;29;20285;-90
2024/01/26 02:34:56;;;;;;;9.83;4.13;;;;;;;-143.21;56.71;73656.97;4907538;29;20209;-90
2024/01/26 02:37:23;;;;;;;10.23;4.13;;;;;;;-143.21;56.79;73660.94;4916116;29;20212;-90
2024/01/26 02:39:50;;;;;;;9.17;3.80;;;;;;;-143.21;56.97;73653.00;4903787;29;20214;-90
2024/01/26 02:42:18;;;;;;;11.60;4.57;;;;;;;-143.21;56.61;73653.00;4917328;29;20232;-90
2024/01/26 02:44:45;;;;;;;14.60;4.47;;;;;;;-143.21;56.45;73649.03;4919170;29;20291;-91
2024/01/26 02:47:12;;;;;;;9.10;3.63;;;;;;;-143.21;56.66;73656.97;4911256;29;20514;-90
2024/01/26 02:49:42;;;;;;;7.50;3.67;;;;;;;-143.21;56.83;73656.97;4918001;29;20220;-90
2024/01/26 02:52:09;;;;;;;7.87;3.50;;;;;;;-143.21;56.40;73645.06;4914693;29;20205;-90
2024/01/26 02:54:35;;;;;;;8.87;3.53;;;;;;;-143.21;55.95;73651.03;4908069;29;20206;-91
2024/01/26 02:57:01;;;;;;;9.50;3.50;;;;;;;-143.21;56.15;73656.97;4918669;29;20236;-89
2024/01/26 02:59:30;;;;;;;11.00;4.37;;;;;;;-143.21;56.45;73645.06;4919118;29;20202;-90
2024/01/26 03:01:57;;;;;;;13.10;3.90;;;;;;;-143.21;55.79;73649.03;4915275;29;20236;-90
2024/01/26 03:04:23;;;;;;;14.43;5.03;;;;;;;-143.21;56.28;73645.06;4905692;29;20229;-90
2024/01/26 03:06:51;;;;;;;14.43;4.90;;;;;;;-143.21;56.09;73645.06;4914139;29;20206;-90
2024/01/26 03:09:17;;;;;;;11.93;4.07;;;;;;;-143.21;56.30;73651.03;4920927;29;20205;-89
2024/01/26 03:11:44;;;;;;;10.43;4.40;;;;;;;-143.21;56.50;73647.06;4932595;29;20233;-91
2024/01/26 03:14:11;;;;;;;14.00;4.20;;;;;;;-143.21;56.56;73645.06;4909027;29;20233;-90
2024/01/26 03:16:41;;;;;;;11.50;3.90;;;;;;;-143.21;56.45;73639.13;4924520;29;20220;-91
2024/01/26 03:19:08;;;;;;;12.47;4.23;;;;;;;-143.21;56.41;73639.13;4914197;29;20285;-90
2024/01/26 03:21:40;;;;;;;13.80;4.20;;;;;;;-143.21;56.19;73635.16;4917702;29;20670;-91
2024/01/26 03:24:07;;;;;;;12.37;4.80;;;;;;;-143.21;56.59;73637.13;4914384;29;20203;-90
2024/01/26 03:26:35;;;;;;;11.57;3.90;;;;;;;-143.21;56.53;73635.16;4911710;29;20205;-90
2024/01/26 03:29:02;;;;;;;13.40;4.57;;;;;;;-143.21;56.56;73633.16;4921992;29;20202;-89
2024/01/26 03:31:29;;;;;;;13.17;5.67;;;;;;;-143.21;56.87;73637.13;4921070;29;20244;-90
2024/01/26 03:33:59;;;;;;;11.97;4.90;;;;;;;-143.21;57.13;73635.16;4918332;29;20214;-89
2024/01/26 03:36:26;;;;;;;11.37;4.77;;;;;;;-143.21;57.11;73631.19;4915298;29;20336;-89
2024/01/26 03:38:54;;;;;;;13.83;4.73;;;;;;;-143.21;57.31;73635.16;4895853;29;20208;-90
2024/01/26 03:41:20;;;;;;;12.27;4.37;;;;;;;-143.21;57.31;73625.22;4914352;29;20203;-90
2024/01/26 03:43:51;;;;;;;10.83;4.70;;;;;;;-143.21;57.29;73625.22;4914269;29;20269;-89
2024/01/26 03:46:18;;;;;;;10.03;4.17;;;;;;;-143.21;57.50;73627.22;4913080;29;20205;-90
2024/01/26 03:48:45;;;;;;;13.43;4.60;;;;;;;-143.21;57.21;73633.16;4911119;29;20231;-89
2024/01/26 03:51:14;;;;;;;10.80;4.60;;;;;;;-143.21;57.40;73629.19;4916388;29;20237;-90
2024/01/26 03:53:40;;;;;;;11.60;4.40;;;;;;;-143.21;57.48;73643.09;4915131;29;20620;-90
2024/01/26 03:56:07;;;;;;;11.17;4.10;;;;;;;-143.21;57.50;73639.13;4914817;29;20198;-90
2024/01/26 03:58:34;;;;;;;9.43;4.00;;;;;;;-143.21;56.71;73633.16;4916330;29;20680;-90
2024/01/26 04:01:01;;;;;;;10.60;4.40;;;;;;;-143.21;56.96;73635.16;4885533;29;20285;-88
2024/01/26 04:03:28;;;;;;;10.60;4.63;;;;;;;-143.21;56.92;73627.22;4908332;29;20732;-91
2024/01/26 04:05:58;;;;;;;21.83;8.20;;;;;;;-143.21;57.03;73639.13;4914652;29;20204;-92
2024/01/26 04:08:26;;;;;;;14.53;6.47;;;;;;;-143.21;56.73;73639.13;4914509;29;20238;-92
2024/01/26 04:10:53;;;;;;;12.93;5.60;;;;;;;-143.21;57.11;73643.09;4920557;29;20664;-91
2024/01/26 04:13:19;;;;;;;12.53;4.90;;;;;;;-143.21;56.53;73639.13;4918984;29;20204;-90
2024/01/26 04:15:46;;;;;;;12.73;4.90;;;;;;;-143.21;56.73;73639.13;4915931;29;20748;-90
2024/01/26 04:18:14;;;;;;;12.30;4.23;;;;;;;-143.21;56.21;73639.13;4909195;29;20222;-91
2024/01/26 04:20:41;;;;;;;10.33;4.37;;;;;;;-143.21;56.58;73647.06;4911535;29;20210;-91
2024/01/26 04:23:07;;;;;;;13.53;4.90;;;;;;;-143.21;56.27;73651.03;4912617;29;20203;-91
2024/01/26 04:25:36;;;;;;;11.37;4.50;;;;;;;-143.21;56.10;73645.06;4912751;29;20214;-91
2024/01/26 04:28:03;;;;;;;13.33;5.47;;;;;;;-143.21;56.40;73656.97;4915715;29;20206;-91
2024/01/26 04:30:32;;;;;;;17.47;5.57;;;;;;;-143.21;55.70;73656.97;4908790;29;20238;-91
2024/01/26 04:32:59;;;;;;;19.13;7.10;;;;;;;-143.21;56.25;73651.03;4911860;29;20265;-92
2024/01/26 04:35:26;;;;;;;14.67;5.93;;;;;;;-143.21;55.90;73653.00;4917132;29;20574;-93
2024/01/26 04:37:53;;;;;;;8.27;4.73;;;;;;;-143.21;55.44;73656.97;4916176;29;20242;-91
2024/01/26 04:40:20;;;;;;;11.50;4.03;;;;;;;-143.21;55.93;73656.97;4917607;29;20219;-92
2024/01/26 04:42:48;;;;;;;8.93;3.93;;;;;;;-143.21;55.46;73662.94;4915397;29;20209;-91
2024/01/26 04:45:15;;;;;;;8.73;3.90;;;;;;;-143.21;55.79;73655.00;4915009;29;20233;-92
2024/01/26 04:47:52;;;;;;;8.40;3.97;;;;;;;-143.21;55.77;73651.03;4914824;29;20329;-91
2024/01/26 04:50:19;;;;;;;10.70;4.33;;;;;;;-143.21;56.16;73666.88;4914959;29;20229;-90
2024/01/26 04:52:45;;;;;;;12.67;4.10;;;;;;;-143.21;56.98;73686.72;4909397;29;20203;-91
2024/01/26 04:55:12;;;;;;;13.10;3.80;;;;;;;-143.21;56.40;73678.78;4913865;29;20210;-91
2024/01/26 04:57:39;;;;;;;7.97;4.07;;;;;;;-143.21;56.60;73674.81;4911945;29;20220;-90
2024/01/26 05:00:09;;;;;;;7.77;3.97;;;;;;;-143.21;56.49;73668.88;4917147;29;20217;-90
2024/01/26 05:02:36;;;;;;;11.07;4.43;;;;;;;-143.21;56.56;73668.88;4929394;29;20244;-89
2024/01/26 05:05:03;;;;;;;8.57;4.10;;;;;;;-143.21;56.63;73670.84;4924699;29;20201;-89
2024/01/26 05:07:29;;;;;;;10.90;4.50;;;;;;;-143.21;56.63;73678.78;4910166;29;20203;-89
2024/01/26 05:09:56;;;;;;;12.50;3.70;;;;;;;-143.21;56.59;73670.84;4902298;29;20209;-90
2024/01/26 05:12:23;;;;;;;9.57;4.67;;;;;;;-143.21;56.68;73676.81;4916504;29;20211;-90
2024/01/26 05:14:50;;;;;;;9.40;3.93;;;;;;;-143.21;56.88;73682.75;4913391;29;20210;-88
2024/01/26 05:17:18;;;;;;;8.77;4.30;;;;;;;-143.21;57.27;73680.78;4909998;29;20253;-89
2024/01/26 05:19:45;;;;;;;11.03;4.07;;;;;;;-143.21;57.49;73702.59;4918639;29;20239;-89
2024/01/26 05:22:11;;;;;;;14.70;4.50;;;;;;;-143.21;57.53;73696.66;4915603;29;20406;-90
2024/01/26 05:24:38;;;;;;;11.50;4.40;;;;;;;-143.21;57.89;73694.66;4915063;29;20648;-90
2024/01/26 05:27:07;;;;;;;15.20;5.20;;;;;;;-143.21;57.42;73696.66;4913763;29;20612;-89
2024/01/26 05:29:34;;;;;;;11.17;4.33;;;;;;;-143.21;57.00;73706.56;4920338;29;20216;-90
2024/01/26 05:32:00;;;;;;;12.90;4.40;;;;;;;-143.21;57.27;73708.56;4917329;29;20242;-90
2024/01/26 05:34:29;;;;;;;13.87;4.90;;;;;;;-143.21;56.91;73710.53;4925039;29;20232;-90
2024/01/26 05:36:56;;;;;;;12.10;5.23;;;;;;;-143.21;56.38;73722.44;4915928;29;20216;-91
2024/01/26 05:39:22;;;;;;;7.13;4.03;;;;;;;-143.21;56.79;73726.41;4928041;29;20208;-91
2024/01/26 05:41:49;;;;;;;13.97;5.73;;;;;;;-143.21;56.35;73726.41;4919120;29;20212;-91
2024/01/26 05:44:16;;;;;;;16.73;5.70;;;;;;;-143.21;56.68;73720.47;4913092;29;20681;-90
2024/01/26 05:46:43;;;;;;;12.47;5.13;;;;;;;-143.21;57.42;73744.25;4898368;29;20324;-91
2024/01/26 05:49:10;;;;;;;9.53;3.70;;;;;;;-143.21;56.58;73742.28;4914356;29;20296;-90
2024/01/26 05:54:52;;;;;;;10.40;4.27;;;;;;;-143.21;56.77;73746.25;4841107;29;20210;-94
2024/01/26 05:57:19;;;;;;;8.20;4.03;;;;;;;-143.21;57.27;73752.19;4842283;29;20287;-91
2024/01/26 05:59:46;;;;;;;10.43;4.10;;;;;;;-143.21;56.72;73748.22;4848036;29;20735;-92
2024/01/26 06:02:12;;;;;;;13.20;5.43;;;;;;;-143.21;57.29;73752.19;4843856;29;20336;-89
2024/01/26 06:04:39;;;;;;;12.43;4.30;;;;;;;-143.21;57.42;73770.06;4833621;29;20219;-88
2024/01/26 06:07:08;;;;;;;8.90;3.80;;;;;;;-143.21;56.99;73766.09;4838930;29;20214;-90
2024/01/26 06:09:34;;;;;;;9.93;3.63;;;;;;;-143.21;57.46;73770.06;4837571;29;20726;-90
2024/01/26 06:12:01;;;;;;;9.23;3.83;;;;;;;-143.21;57.28;73758.16;4837187;29;20671;-91
2024/01/26 06:14:28;;;;;;;10.63;4.00;;;;;;;-143.21;57.41;73768.06;4844965;29;20251;-90
2024/01/26 06:16:55;;;;;;;7.67;3.23;;;;;;;-143.21;57.47;73770.06;4844701;29;20214;-91
2024/01/26 06:19:22;;;;;;;10.67;3.83;;;;;;;-143.21;57.30;73776.00;4825705;29;20275;-90
2024/01/26 06:21:49;;;;;;;10.70;3.47;;;;;;;-143.21;57.32;73776.00;4823576;29;20214;-90
2024/01/26 06:24:17;;;;;;;10.37;4.33;;;;;;;-143.21;57.82;73778.00;4829866;29;20207;-90
2024/01/26 06:26:44;;;;;;;8.87;3.57;;;;;;;-143.21;57.32;73766.09;4825975;29;20223;-92
2024/01/26 06:29:11;;;;;;;10.83;3.53;;;;;;;-143.21;57.26;73785.94;4821521;29;20597;-90
2024/01/26 06:31:38;;;;;;;10.20;3.37;;;;;;;-143.21;57.50;73778.00;4863616;29;20608;-88
2024/01/26 06:34:04;;;;;;;9.80;3.70;;;;;;;-143.21;57.10;73770.06;4896385;29;20214;-89
2024/01/26 06:36:31;;;;;;;8.30;3.57;;;;;;;-143.21;57.45;73766.09;4896049;29;20276;-90
2024/01/26 06:38:58;;;;;;;7.10;3.57;;;;;;;-143.21;57.12;73778.00;4891142;29;20314;-90
2024/01/26 06:41:27;;;;;;;12.83;4.03;;;;;;;-143.21;57.16;73770.06;4879370;29;20213;-91
2024/01/26 06:43:54;;;;;;;8.20;3.40;;;;;;;-143.21;57.37;73778.00;4886835;29;20211;-91
2024/01/26 06:46:22;;;;;;;8.30;3.30;;;;;;;-143.21;57.44;73791.88;4899583;29;20237;-91
2024/01/26 06:48:49;;;;;;;9.03;3.70;;;;;;;-143.21;57.10;73785.94;4909599;29;20241;-90
2024/01/26 06:51:17;;;;;;;10.47;3.73;;;;;;;-143.21;57.10;73791.88;4908507;29;20225;-91
2024/01/26 06:53:43;;;;;;;10.63;3.77;;;;;;;-143.21;57.63;73793.88;4912797;29;20219;-90
2024/01/26 06:56:10;;;;;;;9.77;3.63;;;;;;;-143.21;57.12;73787.91;4904988;29;20207;-91
2024/01/26 06:58:38;;;;;;;11.00;3.43;;;;;;;-143.21;56.90;73791.88;4897424;29;20359;-91
2024/01/26 07:01:06;;;;;;;7.07;4.13;;;;;;;-143.21;57.07;73793.88;4895387;29;20200;-90
2024/01/26 07:03:33;;;;;;;10.03;3.70;;;;;;;-143.21;56.84;73801.81;4897647;29;20681;-90
2024/01/26 07:06:00;;;;;;;6.13;3.60;;;;;;;-143.21;57.22;73795.84;4893191;29;20237;-90
2024/01/26 07:08:27;;;;;;;9.03;4.03;;;;;;;-143.21;56.66;73783.94;4892933;29;20230;-90
2024/01/26 07:10:54;;;;;;;8.90;3.57;;;;;;;-143.21;56.47;73785.94;4894497;29;20654;-90
2024/01/26 07:13:20;;;;;;;7.67;3.73;;;;;;;-143.21;56.29;73778.00;4890399;29;20208;-91
2024/01/26 07:15:49;;;;;;;7.13;3.30;;;;;;;-143.21;56.03;73768.06;4896342;29;20264;-90
2024/01/26 07:18:15;;;;;;;9.43;4.07;;;;;;;-143.21;56.19;73778.00;4883409;29;20651;-90
2024/01/26 07:20:42;;;;;;;9.03;3.80;;;;;;;-143.21;55.66;73776.00;4906463;29;20266;-91
2024/01/26 07:23:09;;;;;;;9.77;3.20;;;;;;;-143.21;55.49;73776.00;4908956;29;20212;-90
2024/01/26 07:25:36;;;;;;;7.63;3.13;;;;;;;-143.21;55.32;73778.00;4911217;29;20253;-91
2024/01/26 07:28:06;;;;;;;11.77;3.60;;;;;;;-143.21;55.17;73776.00;4918283;29;20254;-92
2024/01/26 07:30:33;;;;;;;9.53;3.67;;;;;;;-143.21;55.77;73768.06;4915606;29;20700;-90
2024/01/26 07:33:01;;;;;;;7.53;3.70;;;;;;;-143.21;55.57;73770.06;4909137;29;20230;-92
2024/01/26 07:35:28;;;;;;;7.93;3.20;;;;;;;-143.21;55.04;73766.09;4904742;29;20685;-90
2024/01/26 07:37:58;;;;;;;6.03;3.00;;;;;;;-143.21;55.32;73768.06;4909729;29;20282;-92
2024/01/26 07:40:25;;;;;;;6.60;3.33;;;;;;;-143.21;55.17;73768.06;4903823;29;20241;-91
2024/01/26 07:42:52;;;;;;;11.50;3.53;;;;;;;-143.21;55.01;73756.16;4921542;29;20612;-91
2024/01/26 07:45:18;;;;;;;7.83;3.53;;;;;;;-143.21;55.19;73766.09;4918279;29;20266;-91
2024/01/26 07:47:45;;;;;;;7.93;3.50;;;;;;;-143.21;55.01;73768.06;4915187;29;20277;-92
2024/01/26 07:50:13;;;;;;;7.40;3.20;;;;;;;-143.21;54.48;73764.09;4915175;29;20204;-91
2024/01/26 07:52:41;;;;;;;5.57;2.93;;;;;;;-143.21;54.84;73750.22;4921132;29;20705;-91
2024/01/26 07:55:09;;;;;;;6.63;3.13;;;;;;;-143.21;54.74;73748.22;4913184;29;20260;-91
2024/01/26 07:57:37;;;;;;;8.87;3.30;;;;;;;-143.21;55.08;73768.06;4908683;29;20270;-91
2024/01/26 08:00:08;;;;;;;7.53;2.73;;;;;;;-143.21;54.17;73746.25;4923302;29;20197;-89
2024/01/26 08:02:35;;;;;;;14.17;3.57;;;;;;;-143.21;54.91;73756.16;4902534;29;20687;-90
2024/01/26 08:05:06;;;;;;;10.60;3.30;;;;;;;-143.21;54.41;73774.03;4905151;29;20204;-90
2024/01/26 08:07:38;;;;;;;9.13;3.27;;;;;;;-143.21;54.89;73785.94;4911540;29;20208;-90
2024/01/26 08:10:12;;;;;;;5.07;2.47;;;;;;;-143.21;55.02;73779.97;4910651;29;20211;-92
2024/01/26 08:12:41;;;;;;;4.97;3.10;;;;;;;-143.21;54.97;73783.94;4914229;29;20321;-93
2024/01/26 08:15:12;;;;;;;8.80;3.70;;;;;;;-143.21;55.39;73779.97;4928832;29;20203;-92
2024/01/26 08:17:41;;;;;;;6.67;3.13;;;;;;;-143.21;55.11;73774.03;4919250;29;20225;-92
2024/01/26 08:20:15;;;;;;;6.57;3.33;;;;;;;-143.21;55.00;73779.97;4915152;29;20342;-91
2024/01/26 08:22:44;;;;;;;8.57;3.47;;;;;;;-143.21;54.75;73781.97;4909911;29;20203;-91
2024/01/26 08:25:12;;;;;;;9.93;3.90;;;;;;;-143.21;55.59;73779.97;4914325;29;20203;-91
2024/01/26 08:27:43;;;;;;;12.13;3.90;;;;;;;-143.21;55.11;73762.13;4912024;29;20208;-91
2024/01/26 08:30:21;;;;;;;;;;;;;;;;;;;;;
2024/01/26 08:32:59;;;;;;;6.27;3.20;;;;;;;-143.21;55.50;73762.13;4922347;29;20264;-90
2024/01/26 08:35:28;;;;;;;7.90;3.53;;;;;;;-143.21;55.07;73762.13;4907543;29;20274;-92
2024/01/26 08:41:01;;;;;;;9.33;3.63;;;;;;;-143.21;55.74;73762.13;4842793;29;20217;-89
2024/01/26 08:43:28;;;;;;;8.23;4.17;;;;;;;-143.21;55.92;73752.19;4844241;29;20628;-89
2024/01/26 08:45:55;;;;;;;9.43;3.93;;;;;;;-143.21;55.58;73752.19;4848331;29;20211;-92
2024/01/26 08:48:22;;;;;;;5.97;3.30;;;;;;;-143.21;56.85;73742.28;4848101;29;20314;-89
2024/01/26 08:50:49;;;;;;;13.13;3.97;;;;;;;-143.21;56.27;73740.28;4865021;29;20211;-88
2024/01/26 08:53:17;;;;;;;4.20;3.17;;;;;;;-143.21;55.82;73734.34;4845755;29;20240;-90
2024/01/26 08:55:45;;;;;;;9.00;3.27;;;;;;;-143.21;55.05;73748.22;4850051;29;20223;-90
2024/01/26 08:58:12;;;;;;;6.17;3.20;;;;;;;-143.21;55.20;73744.25;4839458;29;20205;-90
2024/01/26 09:00:51;;;;;;;;;;;;;;;;;;;;;
2024/01/26 09:03:20;;;;;;;7.67;3.57;;;;;;;-143.21;55.23;73748.22;4853972;29;20211;-90
2024/01/26 09:05:47;;;;;;;9.47;3.90;;;;;;;-143.21;55.03;73736.34;4852809;29;20230;-89
2024/01/26 09:08:17;;;;;;;11.60;3.60;;;;;;;-143.21;54.22;73730.38;4838683;29;20378;-89
2024/01/26 09:10:44;;;;;;;11.00;4.00;;;;;;;-143.21;54.75;73720.47;4855112;29;20219;-91
2024/01/26 09:13:11;;;;;;;7.13;3.60;;;;;;;-143.21;55.46;73722.44;4857148;29;20235;-92
2024/01/26 09:15:38;;;;;;;6.93;3.30;;;;;;;-143.21;54.59;73730.38;4853707;29;20201;-89
2024/01/26 09:18:05;;;;;;;5.87;3.07;;;;;;;-143.21;54.94;73742.28;4886043;29;20305;-91
2024/01/26 09:20:32;;;;;;;11.87;4.13;;;;;;;-143.21;55.05;73736.34;4903382;29;20232;-93
2024/01/26 09:23:00;;;;;;;7.10;4.07;;;;;;;-143.21;54.27;73736.34;4920428;29;20205;-93
2024/01/26 09:25:31;;;;;;;7.73;4.00;;;;;;;-143.21;53.96;73724.44;4919190;29;20221;-92
2024/01/26 09:30:48;;;;;;;8.87;3.50;;;;;;;-143.21;54.25;73728.41;4925886;29;20207;-92
2024/01/26 09:33:26;;;;;;;;;;;;;;;;;;;;;
2024/01/26 09:35:54;;;;;;;9.27;3.57;;;;;;;-143.21;54.54;73720.47;4929158;29;20218;-93
2024/01/26 09:38:21;;;;;;;15.60;4.53;;;;;;;-143.21;54.41;73702.59;4910450;29;20210;-91
2024/01/26 09:40:50;;;;;;;12.47;5.30;;;;;;;-143.21;53.92;73700.63;4916132;29;20203;-92
2024/01/26 09:43:21;;;;;;;11.00;4.10;;;;;;;-143.21;53.78;73716.50;4916094;29;20203;-92
2024/01/26 09:45:52;;;;;;;9.30;4.10;;;;;;;-143.21;54.22;73714.50;4915209;29;20201;-90
2024/01/26 09:48:24;;;;;;;8.77;4.10;;;;;;;-143.21;54.45;73700.63;4907505;29;20226;-89
2024/01/26 09:50:51;;;;;;;6.13;3.57;;;;;;;-143.21;53.72;73676.81;4916168;29;20639;-90
2024/01/26 09:53:23;;;;;;;9.53;3.30;;;;;;;-143.21;53.42;73643.09;4912002;29;20328;-90
2024/01/26 09:55:53;;;;;;;9.50;4.50;;;;;;;-143.21;52.59;73617.28;4912974;29;20207;-89
2024/01/26 09:58:20;;;;;;;9.00;4.10;;;;;;;-143.21;50.53;73514.13;4909438;29;20576;-88
2024/01/26 10:00:47;;;;;;;7.03;3.83;;;;;;;-143.21;48.90;73434.78;4915791;29;20270;-89
2024/01/26 10:03:15;;;;;;;5.43;2.87;;;;;;;-143.21;46.90;73367.34;4909086;29;20199;-90
2024/01/26 10:05:42;;;;;;;8.30;3.30;;;;;;;-143.21;45.99;73315.75;4927800;29;20209;-90
2024/01/26 10:08:09;;;;;;;7.93;3.20;;;;;;;-143.21;45.80;73252.28;4901545;29;20207;-88
2024/01/26 10:10:36;;;;;;;6.20;2.90;;;;;;;-143.21;44.08;73180.88;4905650;29;20235;-89
2024/01/26 10:13:07;;;;;;;10.27;3.63;;;;;;;-143.21;44.00;73198.72;4915568;29;20227;-89
2024/01/26 10:15:34;;;;;;;6.67;3.03;;;;;;;-143.21;43.81;73206.66;4926023;29;20199;-90
2024/01/26 10:18:02;;;;;;;7.43;3.20;;;;;;;-143.21;43.54;73182.84;4927689;29;20210;-91
2024/01/26 10:20:29;;;;;;;7.17;3.20;;;;;;;-143.21;42.89;73121.34;4915288;29;20237;-90
2024/01/26 10:22:56;;;;;;;6.73;3.40;;;;;;;-143.21;41.19;73032.09;4925880;29;20203;-89
2024/01/26 10:25:23;;;;;;;9.10;3.67;;;;;;;-143.21;40.18;72968.63;4899923;29;20202;-89
2024/01/26 10:27:50;;;;;;;5.30;3.10;;;;;;;-143.21;39.52;72926.97;4903569;29;20302;-90
2024/01/26 10:30:19;;;;;;;10.70;4.00;;;;;;;-143.21;39.34;72911.09;4915986;29;20648;-90
2024/01/26 10:32:47;;;;;;;7.73;3.50;;;;;;;-143.21;37.58;72875.41;4917358;29;20790;-91
2024/01/26 10:35:16;;;;;;;8.03;3.63;;;;;;;-143.21;38.32;72948.78;4903427;29;20227;-90
2024/01/26 10:37:46;;;;;;;5.90;3.10;;;;;;;-143.21;39.13;72994.41;4918351;29;20209;-90
2024/01/26 10:40:17;;;;;;;9.67;3.37;;;;;;;-143.21;39.94;73014.25;4916791;29;20214;-91
2024/01/26 10:42:50;;;;;;;10.57;3.77;;;;;;;-143.21;40.17;73002.34;4914491;29;20305;-91
2024/01/26 10:45:18;;;;;;;7.50;3.40;;;;;;;-143.21;39.94;73067.78;4916966;29;20210;-90
2024/01/26 10:47:46;;;;;;;5.30;2.90;;;;;;;-143.21;40.46;73107.47;4915809;29;20233;-90
2024/01/26 10:50:13;;;;;;;6.13;3.30;;;;;;;-143.21;40.02;73032.09;4919819;29;20210;-89
2024/01/26 10:52:42;;;;;;;10.63;3.60;;;;;;;-143.21;39.18;72984.50;4921814;29;20230;-90
2024/01/26 10:55:13;;;;;;;4.80;3.00;;;;;;;-143.21;39.15;73026.16;4917919;29;20707;-90
2024/01/26 10:57:41;;;;;;;10.20;3.40;;;;;;;-143.21;38.42;73028.13;4906118;29;20285;-91
2024/01/26 11:00:12;;;;;;;8.63;3.30;;;;;;;-143.21;38.12;72994.41;4920598;29;20800;-89
2024/01/26 11:02:40;;;;;;;8.33;3.53;;;;;;;-143.21;37.84;72976.56;4917194;29;20209;-92
2024/01/26 11:05:10;;;;;;;11.00;3.50;;;;;;;-143.21;38.39;73002.34;4925234;29;20213;-91
2024/01/26 11:07:37;;;;;;;11.27;4.07;;;;;;;-143.21;39.57;73034.06;4914260;29;20206;-91
2024/01/26 11:10:10;;;;;;;9.47;3.60;;;;;;;-143.21;40.65;73065.81;4926096;29;20294;-91
2024/01/26 11:12:41;;;;;;;6.87;3.70;;;;;;;-143.21;40.88;73061.84;4915518;29;20321;-90
2024/01/26 11:15:09;;;;;;;9.87;3.90;;;;;;;-143.21;40.46;73026.16;4915335;29;20213;-91
2024/01/26 11:17:46;;;;;;;9.80;4.00;;;;;;;-143.21;39.75;72970.59;4906782;29;20207;-91
2024/01/26 11:20:18;;;;;;;8.23;3.50;;;;;;;-143.21;38.39;72905.16;4914037;29;20258;-90
2024/01/26 11:22:45;;;;;;;7.27;3.70;;;;;;;-143.21;36.89;72821.84;4916623;29;20198;-91
2024/01/26 11:25:21;;;;;;;9.07;3.43;;;;;;;-143.21;36.01;72837.72;4913247;29;20246;-91
2024/01/26 11:27:57;;;;;;;15.50;5.87;;;;;;;-143.21;37.37;72950.78;4916573;29;20665;-90